createdAt,value
2023-05-21T00:00:13.904Z,87
2023-05-21T00:00:44.839Z,87
2023-05-21T00:01:17.647Z,87
2023-05-21T00:01:48.776Z,87
2023-05-21T00:02:21.664Z,87
2023-05-21T00:02:52.789Z,87
2023-05-21T00:03:25.644Z,87
2023-05-21T00:03:56.816Z,87
2023-05-21T00:04:29.735Z,87
2023-05-21T00:05:01.035Z,87
2023-05-21T00:05:33.503Z,87
2023-05-21T00:06:04.434Z,87
2023-05-21T00:06:37.441Z,87
2023-05-21T00:07:08.639Z,87
2023-05-21T00:07:41.466Z,87
2023-05-21T00:08:12.387Z,87
2023-05-21T00:08:45.424Z,87
2023-05-21T00:09:16.453Z,87
2023-05-21T00:09:49.325Z,87
2023-05-21T00:10:20.384Z,87
2023-05-21T00:10:53.246Z,87
2023-05-21T00:11:24.355Z,87
2023-05-21T00:11:57.094Z,87
2023-05-21T00:12:28.256Z,87
2023-05-21T00:13:01.429Z,87
2023-05-21T00:13:32.283Z,87
2023-05-21T00:14:05.015Z,87
2023-05-21T00:14:36.267Z,87
2023-05-21T00:15:09.211Z,88
2023-05-21T00:15:40.275Z,88
2023-05-21T00:16:13.172Z,88
2023-05-21T00:16:44.357Z,88
2023-05-21T00:17:17.064Z,88
2023-05-21T00:17:48.275Z,88
2023-05-21T00:18:21.016Z,88
2023-05-21T00:18:51.971Z,88
2023-05-21T00:19:25.091Z,88
2023-05-21T00:19:56.056Z,88
2023-05-21T00:20:28.804Z,88
2023-05-21T00:21:00.073Z,88
2023-05-21T00:21:32.915Z,88
2023-05-21T00:22:04.033Z,88
2023-05-21T00:22:36.669Z,88
2023-05-21T00:23:07.809Z,88
2023-05-21T00:23:41.024Z,88
2023-05-21T00:24:11.761Z,88
2023-05-21T00:24:44.663Z,88
2023-05-21T00:25:15.734Z,88
2023-05-21T00:25:48.730Z,88
2023-05-21T00:26:19.548Z,88
2023-05-21T00:26:52.593Z,88
2023-05-21T00:27:23.624Z,88
2023-05-21T00:27:56.562Z,88
2023-05-21T00:28:27.503Z,88
2023-05-21T00:29:00.994Z,88
2023-05-21T00:29:31.559Z,88
2023-05-21T00:30:05.011Z,88
2023-05-21T00:30:35.539Z,88
2023-05-21T00:31:08.605Z,88
2023-05-21T00:31:39.524Z,88
2023-05-21T00:32:12.780Z,88
2023-05-21T00:32:43.494Z,88
2023-05-21T00:33:16.366Z,88
2023-05-21T00:33:47.396Z,88
2023-05-21T00:34:20.369Z,87
2023-05-21T00:34:51.496Z,87
2023-05-21T00:35:24.173Z,87
2023-05-21T00:35:55.307Z,87
2023-05-21T00:36:28.211Z,87
2023-05-21T00:36:59.201Z,87
2023-05-21T00:37:32.355Z,87
2023-05-21T00:38:03.247Z,87
2023-05-21T00:38:35.964Z,87
2023-05-21T00:39:06.993Z,87
2023-05-21T00:39:39.986Z,87
2023-05-21T00:40:11.418Z,87
2023-05-21T00:40:44.222Z,87
2023-05-21T00:41:15.045Z,87
2023-05-21T00:41:48.170Z,87
2023-05-21T00:42:19.160Z,87
2023-05-21T00:42:51.911Z,87
2023-05-21T00:43:23.036Z,87
2023-05-21T00:43:56.113Z,88
2023-05-21T00:44:26.996Z,88
2023-05-21T00:44:59.869Z,88
2023-05-21T00:45:31.320Z,88
2023-05-21T00:46:04.023Z,88
2023-05-21T00:46:34.903Z,88
2023-05-21T00:47:07.777Z,88
2023-05-21T00:47:38.856Z,88
2023-05-21T00:48:11.653Z,88
2023-05-21T00:48:42.676Z,88
2023-05-21T00:49:15.763Z,88
2023-05-21T00:49:46.624Z,88
2023-05-21T00:50:19.577Z,88
2023-05-21T00:50:50.885Z,88
2023-05-21T00:51:23.514Z,88
2023-05-21T00:51:54.554Z,89
2023-05-21T00:52:27.522Z,89
2023-05-21T00:52:58.636Z,89
2023-05-21T00:53:31.713Z,89
2023-05-21T00:54:02.465Z,89
2023-05-21T00:54:35.603Z,89
2023-05-21T00:55:06.548Z,89
2023-05-21T00:55:39.369Z,89
2023-05-21T00:56:10.514Z,89
2023-05-21T00:56:43.306Z,89
2023-05-21T00:57:14.433Z,89
2023-05-21T00:57:47.387Z,89
2023-05-21T00:58:18.414Z,89
2023-05-21T00:58:51.515Z,89
2023-05-21T00:59:22.201Z,89
2023-05-21T00:59:55.187Z,89
2023-05-21T01:00:26.528Z,89
2023-05-21T01:00:59.330Z,89
2023-05-21T01:01:30.202Z,89
2023-05-21T01:02:03.168Z,89
2023-05-21T01:02:34.525Z,89
2023-05-21T01:03:07.355Z,89
2023-05-21T01:03:38.018Z,89
2023-05-21T01:04:11.281Z,89
2023-05-21T01:04:42.050Z,89
2023-05-21T01:05:15.130Z,89
2023-05-21T01:05:45.791Z,89
2023-05-21T01:06:18.929Z,89
2023-05-21T01:06:49.950Z,89
2023-05-21T01:07:23.007Z,89
2023-05-21T01:07:53.832Z,89
2023-05-21T01:08:26.915Z,89
2023-05-21T01:08:57.910Z,89
2023-05-21T01:09:30.904Z,89
2023-05-21T01:10:01.814Z,89
2023-05-21T01:10:35.857Z,89
2023-05-21T01:11:05.797Z,89
2023-05-21T01:11:38.734Z,89
2023-05-21T01:12:09.673Z,89
2023-05-21T01:12:42.577Z,89
2023-05-21T01:13:13.818Z,89
2023-05-21T01:13:46.660Z,89
2023-05-21T01:14:17.803Z,89
2023-05-21T01:14:50.684Z,89
2023-05-21T01:15:21.873Z,89
2023-05-21T01:15:54.547Z,89
2023-05-21T01:16:25.730Z,89
2023-05-21T01:16:58.450Z,89
2023-05-21T01:17:29.578Z,89
2023-05-21T01:18:02.843Z,89
2023-05-21T01:18:33.505Z,89
2023-05-21T01:19:06.500Z,89
2023-05-21T01:19:37.654Z,89
2023-05-21T01:20:10.237Z,89
2023-05-21T01:20:41.481Z,89
2023-05-21T01:21:14.358Z,89
2023-05-21T01:21:45.472Z,89
2023-05-21T01:22:18.209Z,89
2023-05-21T01:22:49.237Z,89
2023-05-21T01:23:22.405Z,89
2023-05-21T01:23:53.371Z,89
2023-05-21T01:24:26.072Z,89
2023-05-21T01:24:57.205Z,89
2023-05-21T01:25:30.848Z,89
2023-05-21T01:26:01.370Z,89
2023-05-21T01:26:34.137Z,89
2023-05-21T01:27:05.045Z,89
2023-05-21T01:27:38.108Z,89
2023-05-21T01:28:09.764Z,89
2023-05-21T01:28:41.970Z,89
2023-05-21T01:29:13.016Z,89
2023-05-21T01:29:46.002Z,89
2023-05-21T01:30:17.277Z,89
2023-05-21T01:30:50.269Z,89
2023-05-21T01:31:21.112Z,89
2023-05-21T01:31:53.912Z,89
2023-05-21T01:32:25.099Z,89
2023-05-21T01:32:57.760Z,89
2023-05-21T01:33:28.868Z,89
2023-05-21T01:34:01.890Z,89
2023-05-21T01:34:32.864Z,89
2023-05-21T01:35:05.600Z,89
2023-05-21T01:35:36.987Z,89
2023-05-21T01:36:09.743Z,89
2023-05-21T01:36:40.952Z,89
2023-05-21T01:37:13.414Z,89
2023-05-21T01:37:44.531Z,89
2023-05-21T01:38:17.941Z,90
2023-05-21T01:38:48.695Z,90
2023-05-21T01:39:22.027Z,90
2023-05-21T01:39:52.562Z,90
2023-05-21T01:40:25.429Z,90
2023-05-21T01:40:56.445Z,90
2023-05-21T01:41:29.446Z,90
2023-05-21T01:42:00.668Z,90
2023-05-21T01:42:33.388Z,90
2023-05-21T01:43:04.882Z,90
2023-05-21T01:43:37.353Z,90
2023-05-21T01:44:08.903Z,90
2023-05-21T01:44:41.348Z,90
2023-05-21T01:45:12.440Z,90
2023-05-21T01:45:45.472Z,90
2023-05-21T01:46:16.408Z,90
2023-05-21T01:46:49.362Z,90
2023-05-21T01:47:20.173Z,90
2023-05-21T01:47:53.144Z,90
2023-05-21T01:48:24.266Z,90
2023-05-21T01:48:57.205Z,90
2023-05-21T01:49:28.271Z,90
2023-05-21T01:50:01.195Z,90
2023-05-21T01:50:32.138Z,90
2023-05-21T01:51:05.143Z,90
2023-05-21T01:51:36.117Z,90
2023-05-21T01:52:09.021Z,90
2023-05-21T01:52:39.919Z,90
2023-05-21T01:53:13.328Z,90
2023-05-21T01:53:44.106Z,90
2023-05-21T01:54:17.030Z,90
2023-05-21T01:54:47.898Z,90
2023-05-21T01:55:21.010Z,90
2023-05-21T01:55:51.794Z,90
2023-05-21T01:56:24.764Z,90
2023-05-21T01:56:56.012Z,90
2023-05-21T01:57:28.905Z,90
2023-05-21T01:58:01.361Z,90
2023-05-21T01:58:32.744Z,90
2023-05-21T01:59:03.810Z,90
2023-05-21T01:59:36.806Z,90
2023-05-21T02:00:08.137Z,90
2023-05-21T02:00:40.804Z,90
2023-05-21T02:01:11.749Z,90
2023-05-21T02:01:44.726Z,90
2023-05-21T02:02:15.692Z,90
2023-05-21T02:02:48.654Z,90
2023-05-21T02:03:19.653Z,90
2023-05-21T02:03:52.801Z,90
2023-05-21T02:04:23.431Z,90
2023-05-21T02:04:56.510Z,90
2023-05-21T02:05:27.668Z,90
2023-05-21T02:06:00.801Z,90
2023-05-21T02:06:31.457Z,90
2023-05-21T02:07:04.300Z,90
2023-05-21T02:07:35.428Z,90
2023-05-21T02:08:08.438Z,90
2023-05-21T02:08:39.288Z,90
2023-05-21T02:09:12.315Z,90
2023-05-21T02:09:43.499Z,90
2023-05-21T02:10:16.179Z,90
2023-05-21T02:10:47.210Z,90
2023-05-21T02:11:20.303Z,90
2023-05-21T02:11:51.516Z,90
2023-05-21T02:12:24.512Z,90
2023-05-21T02:12:55.272Z,90
2023-05-21T02:13:28.215Z,90
2023-05-21T02:13:59.309Z,90
2023-05-21T02:14:32.129Z,90
2023-05-21T02:15:03.298Z,90
2023-05-21T02:15:36.260Z,90
2023-05-21T02:16:07.128Z,90
2023-05-21T02:16:39.991Z,90
2023-05-21T02:17:11.155Z,91
2023-05-21T02:17:43.906Z,91
2023-05-21T02:18:15.152Z,91
2023-05-21T02:18:48.110Z,91
2023-05-21T02:19:18.947Z,91
2023-05-21T02:19:52.647Z,91
2023-05-21T02:20:23.067Z,91
2023-05-21T02:20:55.795Z,91
2023-05-21T02:21:26.936Z,91
2023-05-21T02:22:00.158Z,91
2023-05-21T02:22:31.032Z,91
2023-05-21T02:23:03.685Z,91
2023-05-21T02:23:34.676Z,91
2023-05-21T02:24:07.920Z,91
2023-05-21T02:24:38.856Z,91
2023-05-21T02:25:11.628Z,91
2023-05-21T02:25:42.627Z,91
2023-05-21T02:26:15.741Z,91
2023-05-21T02:26:46.790Z,91
2023-05-21T02:27:19.681Z,91
2023-05-21T02:27:50.771Z,91
2023-05-21T02:28:23.601Z,91
2023-05-21T02:28:54.613Z,91
2023-05-21T02:29:27.410Z,91
2023-05-21T02:29:58.589Z,91
2023-05-21T02:30:31.621Z,91
2023-05-21T02:31:02.623Z,91
2023-05-21T02:31:36.221Z,91
2023-05-21T02:32:06.462Z,91
2023-05-21T02:32:39.427Z,91
2023-05-21T02:33:10.608Z,91
2023-05-21T02:33:43.315Z,91
2023-05-21T02:34:14.314Z,91
2023-05-21T02:34:47.418Z,91
2023-05-21T02:35:18.139Z,91
2023-05-21T02:35:51.047Z,91
2023-05-21T02:36:22.161Z,91
2023-05-21T02:36:55.288Z,91
2023-05-21T02:37:26.340Z,91
2023-05-21T02:37:59.199Z,91
2023-05-21T02:38:30.053Z,91
2023-05-21T02:39:03.171Z,91
2023-05-21T02:39:34.175Z,91
2023-05-21T02:40:07.052Z,91
2023-05-21T02:40:38.060Z,91
2023-05-21T02:41:11.001Z,91
2023-05-21T02:41:41.817Z,91
2023-05-21T02:42:15.057Z,91
2023-05-21T02:42:46.079Z,91
2023-05-21T02:43:18.904Z,91
2023-05-21T02:43:49.803Z,91
2023-05-21T02:44:22.904Z,91
2023-05-21T02:44:53.923Z,91
2023-05-21T02:45:27.041Z,91
2023-05-21T02:45:57.975Z,91
2023-05-21T02:46:30.948Z,91
2023-05-21T02:47:01.851Z,91
2023-05-21T02:47:35.030Z,91
2023-05-21T02:48:05.841Z,91
2023-05-21T02:48:38.659Z,91
2023-05-21T02:49:09.693Z,91
2023-05-21T02:49:42.632Z,91
2023-05-21T02:50:13.714Z,91
2023-05-21T02:50:46.763Z,91
2023-05-21T02:51:17.593Z,91
2023-05-21T02:51:50.846Z,91
2023-05-21T02:52:21.634Z,91
2023-05-21T02:52:54.592Z,91
2023-05-21T02:53:25.513Z,91
2023-05-21T02:53:58.684Z,91
2023-05-21T02:54:29.515Z,91
2023-05-21T02:55:02.722Z,91
2023-05-21T02:55:33.797Z,91
2023-05-21T02:56:06.141Z,91
2023-05-21T02:56:37.292Z,91
2023-05-21T02:57:10.585Z,91
2023-05-21T02:57:41.582Z,91
2023-05-21T02:58:14.200Z,91
2023-05-21T02:58:45.095Z,91
2023-05-21T02:59:18.350Z,91
2023-05-21T02:59:49.176Z,91
2023-05-21T03:00:22.657Z,91
2023-05-21T03:00:53.238Z,91
2023-05-21T03:01:26.363Z,91
2023-05-21T03:01:57.178Z,91
2023-05-21T03:02:30.285Z,91
2023-05-21T03:03:01.380Z,91
2023-05-21T03:03:34.278Z,91
2023-05-21T03:04:05.214Z,91
2023-05-21T03:04:37.817Z,91
2023-05-21T03:05:09.102Z,91
2023-05-21T03:05:41.895Z,91
2023-05-21T03:06:13.011Z,91
2023-05-21T03:06:45.822Z,91
2023-05-21T03:07:16.841Z,91
2023-05-21T03:07:49.828Z,91
2023-05-21T03:08:20.968Z,91
2023-05-21T03:08:53.805Z,91
2023-05-21T03:09:24.811Z,91
2023-05-21T03:09:57.972Z,91
2023-05-21T03:10:28.888Z,91
2023-05-21T03:11:01.590Z,92
2023-05-21T03:11:32.825Z,91
2023-05-21T03:12:05.533Z,91
2023-05-21T03:12:36.871Z,91
2023-05-21T03:13:10.061Z,91
2023-05-21T03:13:40.772Z,92
2023-05-21T03:14:13.514Z,91
2023-05-21T03:14:44.498Z,91
2023-05-21T03:15:17.643Z,91
2023-05-21T03:15:48.674Z,91
2023-05-21T03:16:21.610Z,91
2023-05-21T03:16:52.803Z,91
2023-05-21T03:17:25.423Z,91
2023-05-21T03:17:56.533Z,91
2023-05-21T03:18:29.720Z,91
2023-05-21T03:19:00.658Z,91
2023-05-21T03:19:33.447Z,91
2023-05-21T03:20:04.480Z,91
2023-05-21T03:20:37.444Z,91
2023-05-21T03:21:08.396Z,92
2023-05-21T03:21:41.353Z,92
2023-05-21T03:22:12.325Z,92
2023-05-21T03:22:45.431Z,92
2023-05-21T03:23:16.896Z,92
2023-05-21T03:23:49.413Z,92
2023-05-21T03:24:20.449Z,92
2023-05-21T03:24:53.550Z,92
2023-05-21T03:25:24.280Z,92
2023-05-21T03:25:57.119Z,92
2023-05-21T03:26:28.264Z,92
2023-05-21T03:27:01.296Z,92
2023-05-21T03:27:32.047Z,92
2023-05-21T03:28:05.038Z,92
2023-05-21T03:28:36.262Z,92
2023-05-21T03:29:09.037Z,92
2023-05-21T03:29:39.945Z,92
2023-05-21T03:30:13.210Z,92
2023-05-21T03:30:43.909Z,92
2023-05-21T03:31:16.939Z,92
2023-05-21T03:31:48.161Z,93
2023-05-21T03:32:21.208Z,93
2023-05-21T03:32:51.986Z,93
2023-05-21T03:33:24.756Z,93
2023-05-21T03:33:56.035Z,93
2023-05-21T03:34:28.814Z,93
2023-05-21T03:34:59.885Z,93
2023-05-21T03:35:32.488Z,93
2023-05-21T03:36:03.706Z,93
2023-05-21T03:36:38.155Z,93
2023-05-21T03:37:07.782Z,93
2023-05-21T03:37:40.529Z,93
2023-05-21T03:38:11.637Z,93
2023-05-21T03:38:44.795Z,93
2023-05-21T03:39:15.552Z,93
2023-05-21T03:39:48.480Z,93
2023-05-21T03:40:19.652Z,93
2023-05-21T03:40:52.520Z,93
2023-05-21T03:41:23.583Z,93
2023-05-21T03:41:56.487Z,93
2023-05-21T03:42:27.442Z,93
2023-05-21T03:43:00.213Z,93
2023-05-21T03:43:31.623Z,93
2023-05-21T03:44:04.215Z,93
2023-05-21T03:44:35.462Z,93
2023-05-21T03:45:08.642Z,93
2023-05-21T03:45:40.999Z,93
2023-05-21T03:46:12.229Z,93
2023-05-21T03:46:43.331Z,93
2023-05-21T03:47:16.283Z,93
2023-05-21T03:47:47.513Z,93
2023-05-21T03:48:20.290Z,93
2023-05-21T03:48:51.310Z,93
2023-05-21T03:49:24.357Z,93
2023-05-21T03:49:55.204Z,93
2023-05-21T03:50:28.212Z,93
2023-05-21T03:50:59.179Z,93
2023-05-21T03:51:32.216Z,93
2023-05-21T03:52:03.332Z,93
2023-05-21T03:52:36.051Z,93
2023-05-21T03:53:07.094Z,93
2023-05-21T03:53:40.307Z,93
2023-05-21T03:54:11.057Z,93
2023-05-21T03:54:43.837Z,93
2023-05-21T03:55:14.918Z,93
2023-05-21T03:55:47.926Z,93
2023-05-21T03:56:18.897Z,93
2023-05-21T03:56:51.753Z,93
2023-05-21T03:57:22.928Z,93
2023-05-21T03:57:56.138Z,93
2023-05-21T03:58:26.700Z,93
2023-05-21T03:58:59.829Z,93
2023-05-21T03:59:31.103Z,93
2023-05-21T04:00:03.864Z,93
2023-05-21T04:00:34.588Z,93
2023-05-21T04:01:07.800Z,93
2023-05-21T04:01:38.907Z,94
2023-05-21T04:02:11.752Z,94
2023-05-21T04:02:42.875Z,94
2023-05-21T04:03:15.687Z,94
2023-05-21T04:03:46.902Z,94
2023-05-21T04:04:19.725Z,94
2023-05-21T04:04:50.793Z,94
2023-05-21T04:05:23.454Z,94
2023-05-21T04:05:54.476Z,94
2023-05-21T04:06:27.752Z,94
2023-05-21T04:06:58.420Z,94
2023-05-21T04:07:31.628Z,94
2023-05-21T04:08:02.321Z,94
2023-05-21T04:08:35.928Z,94
2023-05-21T04:09:06.261Z,94
2023-05-21T04:09:39.180Z,94
2023-05-21T04:10:10.316Z,94
2023-05-21T04:10:43.361Z,94
2023-05-21T04:11:14.154Z,94
2023-05-21T04:11:47.112Z,94
2023-05-21T04:12:18.152Z,94
2023-05-21T04:12:51.265Z,94
2023-05-21T04:13:22.058Z,94
2023-05-21T04:13:55.214Z,94
2023-05-21T04:14:26.135Z,94
2023-05-21T04:14:59.301Z,94
2023-05-21T04:15:30.158Z,94
2023-05-21T04:16:03.012Z,94
2023-05-21T04:16:34.189Z,94
2023-05-21T04:17:07.194Z,94
2023-05-21T04:17:37.992Z,94
2023-05-21T04:18:11.035Z,94
2023-05-21T04:18:44.872Z,94
2023-05-21T04:19:14.855Z,94
2023-05-21T04:19:45.934Z,94
2023-05-21T04:20:18.797Z,94
2023-05-21T04:20:50.031Z,94
2023-05-21T04:21:22.730Z,94
2023-05-21T04:21:53.776Z,94
2023-05-21T04:22:26.796Z,94
2023-05-21T04:22:57.818Z,94
2023-05-21T04:23:30.998Z,94
2023-05-21T04:24:01.760Z,94
2023-05-21T04:24:34.993Z,94
2023-05-21T04:25:05.812Z,94
2023-05-21T04:25:38.540Z,94
2023-05-21T04:26:09.552Z,94
2023-05-21T04:26:42.618Z,94
2023-05-21T04:27:13.739Z,94
2023-05-21T04:27:46.433Z,94
2023-05-21T04:28:17.737Z,94
2023-05-21T04:28:50.653Z,94
2023-05-21T04:29:21.653Z,94
2023-05-21T04:29:54.280Z,94
2023-05-21T04:30:25.495Z,94
2023-05-21T04:30:58.363Z,94
2023-05-21T04:31:29.525Z,94
2023-05-21T04:32:02.477Z,94
2023-05-21T04:32:33.489Z,94
2023-05-21T04:33:06.448Z,94
2023-05-21T04:33:37.372Z,94
2023-05-21T04:34:10.136Z,94
2023-05-21T04:34:41.495Z,94
2023-05-21T04:35:14.280Z,94
2023-05-21T04:35:45.479Z,94
2023-05-21T04:36:18.048Z,94
2023-05-21T04:36:49.076Z,94
2023-05-21T04:37:22.160Z,94
2023-05-21T04:37:53.340Z,94
2023-05-21T04:38:26.036Z,94
2023-05-21T04:38:56.954Z,94
2023-05-21T04:39:30.241Z,93
2023-05-21T04:40:01.385Z,93
2023-05-21T04:40:33.835Z,93
2023-05-21T04:41:04.953Z,93
2023-05-21T04:41:38.163Z,93
2023-05-21T04:42:09.941Z,93
2023-05-21T04:42:41.756Z,93
2023-05-21T04:43:12.789Z,93
2023-05-21T04:43:46.080Z,93
2023-05-21T04:44:16.958Z,93
2023-05-21T04:44:49.706Z,93
2023-05-21T04:45:21.257Z,93
2023-05-21T04:45:53.843Z,92
2023-05-21T04:46:24.714Z,92
2023-05-21T04:46:57.630Z,92
2023-05-21T04:47:28.970Z,92
2023-05-21T04:48:02.095Z,92
2023-05-21T04:48:32.684Z,92
2023-05-21T04:49:05.631Z,92
2023-05-21T04:49:36.794Z,92
2023-05-21T04:50:09.597Z,92
2023-05-21T04:50:40.859Z,92
2023-05-21T04:51:13.433Z,92
2023-05-21T04:51:45.276Z,92
2023-05-21T04:52:17.500Z,92
2023-05-21T04:52:48.529Z,92
2023-05-21T04:53:21.572Z,91
2023-05-21T04:53:52.487Z,91
2023-05-21T04:54:25.475Z,91
2023-05-21T04:54:56.351Z,91
2023-05-21T04:55:29.569Z,91
2023-05-21T04:56:00.556Z,91
2023-05-21T04:56:33.328Z,91
2023-05-21T04:57:04.236Z,91
2023-05-21T04:57:38.662Z,91
2023-05-21T04:58:08.322Z,91
2023-05-21T04:58:41.327Z,91
2023-05-21T04:59:12.153Z,91
2023-05-21T04:59:45.187Z,91
2023-05-21T05:00:16.565Z,91
2023-05-21T05:00:49.405Z,91
2023-05-21T05:01:20.220Z,91
2023-05-21T05:01:53.027Z,91
2023-05-21T05:02:24.264Z,91
2023-05-21T05:02:57.382Z,91
2023-05-21T05:03:28.175Z,91
2023-05-21T05:04:01.188Z,91
2023-05-21T05:04:32.051Z,91
2023-05-21T05:05:04.864Z,91
2023-05-21T05:05:36.181Z,91
2023-05-21T05:06:08.913Z,91
2023-05-21T05:06:40.109Z,90
2023-05-21T05:07:12.986Z,90
2023-05-21T05:07:43.942Z,90
2023-05-21T05:08:16.751Z,90
2023-05-21T05:08:47.993Z,90
2023-05-21T05:09:20.694Z,90
2023-05-21T05:09:51.729Z,90
2023-05-21T05:10:24.552Z,90
2023-05-21T05:10:55.812Z,90
2023-05-21T05:11:28.501Z,90
2023-05-21T05:11:59.618Z,90
2023-05-21T05:12:32.469Z,90
2023-05-21T05:13:03.799Z,90
2023-05-21T05:13:37.533Z,90
2023-05-21T05:14:07.494Z,90
2023-05-21T05:14:40.807Z,90
2023-05-21T05:15:11.830Z,90
2023-05-21T05:15:44.359Z,90
2023-05-21T05:16:15.640Z,90
2023-05-21T05:16:48.561Z,90
2023-05-21T05:17:19.520Z,90
2023-05-21T05:17:52.324Z,90
2023-05-21T05:18:23.371Z,90
2023-05-21T05:18:56.446Z,90
2023-05-21T05:19:27.419Z,90
2023-05-21T05:20:02.475Z,90
2023-05-21T05:20:31.465Z,90
2023-05-21T05:21:04.226Z,90
2023-05-21T05:21:35.322Z,90
2023-05-21T05:22:08.210Z,90
2023-05-21T05:22:39.310Z,90
2023-05-21T05:23:12.241Z,90
2023-05-21T05:23:43.267Z,90
2023-05-21T05:24:16.055Z,90
2023-05-21T05:24:47.160Z,90
2023-05-21T05:25:20.231Z,90
2023-05-21T05:25:51.275Z,90
2023-05-21T05:26:23.906Z,90
2023-05-21T05:26:55.034Z,90
2023-05-21T05:27:28.416Z,90
2023-05-21T05:27:59.186Z,90
2023-05-21T05:28:32.029Z,90
2023-05-21T05:29:02.940Z,90
2023-05-21T05:29:39.788Z,90
2023-05-21T05:30:07.416Z,90
2023-05-21T05:30:38.991Z,90
2023-05-21T05:31:11.126Z,90
2023-05-21T05:31:42.781Z,89
2023-05-21T05:32:14.939Z,89
2023-05-21T05:32:46.882Z,89
2023-05-21T05:33:18.648Z,89
2023-05-21T05:33:50.901Z,89
2023-05-21T05:34:22.921Z,89
2023-05-21T05:34:54.551Z,89
2023-05-21T05:35:26.726Z,89
2023-05-21T05:35:58.719Z,89
2023-05-21T05:36:30.979Z,89
2023-05-21T05:37:02.570Z,89
2023-05-21T05:37:35.087Z,89
2023-05-21T05:38:06.722Z,89
2023-05-21T05:38:38.528Z,89
2023-05-21T05:39:10.569Z,89
2023-05-21T05:39:42.500Z,89
2023-05-21T05:40:14.580Z,89
2023-05-21T05:40:46.508Z,89
2023-05-21T05:41:18.374Z,89
2023-05-21T05:41:50.581Z,89
2023-05-21T05:42:22.476Z,89
2023-05-21T05:42:54.514Z,89
2023-05-21T05:43:26.301Z,89
2023-05-21T05:43:58.210Z,89
2023-05-21T05:44:30.487Z,89
2023-05-21T05:45:02.480Z,88
2023-05-21T05:45:34.433Z,88
2023-05-21T05:46:06.329Z,88
2023-05-21T05:46:38.548Z,88
2023-05-21T05:47:10.106Z,89
2023-05-21T05:47:42.275Z,88
2023-05-21T05:48:14.184Z,88
2023-05-21T05:48:46.151Z,88
2023-05-21T05:49:17.945Z,88
2023-05-21T05:49:50.052Z,88
2023-05-21T05:50:22.201Z,88
2023-05-21T05:50:54.003Z,88
2023-05-21T05:51:25.922Z,88
2023-05-21T05:51:57.963Z,88
2023-05-21T05:52:29.888Z,88
2023-05-21T05:53:01.925Z,88
2023-05-21T05:53:33.714Z,88
2023-05-21T05:54:05.863Z,88
2023-05-21T05:54:37.799Z,88
2023-05-21T05:55:10.091Z,88
2023-05-21T05:55:41.854Z,88
2023-05-21T05:56:13.706Z,88
2023-05-21T05:56:45.772Z,88
2023-05-21T05:57:17.734Z,88
2023-05-21T05:57:49.751Z,88
2023-05-21T05:58:21.818Z,88
2023-05-21T05:58:53.727Z,88
2023-05-21T05:59:25.753Z,88
2023-05-21T05:59:57.574Z,88
2023-05-21T06:00:29.982Z,88
2023-05-21T06:01:01.675Z,88
2023-05-21T06:01:34.080Z,88
2023-05-21T06:02:05.602Z,88
2023-05-21T06:02:37.787Z,88
2023-05-21T06:03:09.716Z,88
2023-05-21T06:03:41.665Z,88
2023-05-21T06:04:13.449Z,88
2023-05-21T06:04:45.492Z,88
2023-05-21T06:05:17.769Z,88
2023-05-21T06:05:49.702Z,88
2023-05-21T06:06:21.526Z,88
2023-05-21T06:06:53.272Z,88
2023-05-21T06:07:25.292Z,88
2023-05-21T06:07:57.418Z,88
2023-05-21T06:08:29.353Z,88
2023-05-21T06:09:01.423Z,88
2023-05-21T06:09:33.218Z,88
2023-05-21T06:10:05.443Z,88
2023-05-21T06:10:37.385Z,88
2023-05-21T06:11:09.225Z,88
2023-05-21T06:11:41.314Z,88
2023-05-21T06:12:15.163Z,88
2023-05-21T06:12:45.104Z,88
2023-05-21T06:13:17.182Z,88
2023-05-21T06:13:49.117Z,88
2023-05-21T06:14:21.064Z,88
2023-05-21T06:14:53.119Z,88
2023-05-21T06:15:25.180Z,88
2023-05-21T06:15:57.716Z,88
2023-05-21T06:16:29.093Z,88
2023-05-21T06:17:01.384Z,88
2023-05-21T06:17:33.030Z,88
2023-05-21T06:18:05.080Z,88
2023-05-21T06:18:36.992Z,88
2023-05-21T06:19:09.005Z,88
2023-05-21T06:19:40.927Z,88
2023-05-21T06:20:12.902Z,88
2023-05-21T06:20:44.705Z,88
2023-05-21T06:21:16.754Z,87
2023-05-21T06:21:48.729Z,87
2023-05-21T06:22:21.265Z,87
2023-05-21T06:22:52.686Z,88
2023-05-21T06:23:24.640Z,87
2023-05-21T06:23:56.799Z,88
2023-05-21T06:24:28.817Z,87
2023-05-21T06:25:01.107Z,87
2023-05-21T06:25:32.727Z,88
2023-05-21T06:26:04.591Z,87
2023-05-21T06:26:36.657Z,88
2023-05-21T06:27:08.455Z,88
2023-05-21T06:27:40.722Z,88
2023-05-21T06:28:12.558Z,88
2023-05-21T06:28:44.676Z,87
2023-05-21T06:29:16.477Z,87
2023-05-21T06:29:48.487Z,87
2023-05-21T06:30:20.844Z,87
2023-05-21T06:30:52.480Z,87
2023-05-21T06:31:24.302Z,87
2023-05-21T06:31:56.320Z,87
2023-05-21T06:32:28.596Z,87
2023-05-21T06:33:00.879Z,87
2023-05-21T06:33:32.262Z,87
2023-05-21T06:34:04.460Z,87
2023-05-21T06:34:36.260Z,87
2023-05-21T06:35:08.348Z,87
2023-05-21T06:35:40.280Z,87
2023-05-21T06:36:12.405Z,87
2023-05-21T06:36:44.304Z,87
2023-05-21T06:37:16.252Z,87
2023-05-21T06:37:48.047Z,87
2023-05-21T06:38:20.078Z,87
2023-05-21T06:38:52.069Z,87
2023-05-21T06:39:24.133Z,87
2023-05-21T06:39:55.968Z,87
2023-05-21T06:40:28.116Z,87
2023-05-21T06:41:00.098Z,87
2023-05-21T06:41:32.023Z,87
2023-05-21T06:42:03.885Z,87
2023-05-21T06:42:35.906Z,86
2023-05-21T06:43:08.092Z,86
2023-05-21T06:43:39.924Z,86
2023-05-21T06:44:12.054Z,86
2023-05-21T06:44:43.912Z,86
2023-05-21T06:45:15.877Z,85
2023-05-21T06:45:47.658Z,85
2023-05-21T06:46:19.949Z,85
2023-05-21T06:46:51.797Z,85
2023-05-21T06:47:23.637Z,85
2023-05-21T06:47:55.892Z,85
2023-05-21T06:48:27.798Z,85
2023-05-21T06:48:59.714Z,85
2023-05-21T06:49:31.678Z,85
2023-05-21T06:50:03.770Z,85
2023-05-21T06:50:35.614Z,84
2023-05-21T06:51:07.791Z,85
2023-05-21T06:51:39.489Z,85
2023-05-21T06:52:11.729Z,85
2023-05-21T06:52:43.653Z,85
2023-05-21T06:53:15.527Z,85
2023-05-21T06:53:47.271Z,85
2023-05-21T06:54:19.489Z,84
2023-05-21T06:54:51.595Z,85
2023-05-21T06:55:23.301Z,84
2023-05-21T06:55:55.408Z,84
2023-05-21T06:56:27.443Z,84
2023-05-21T06:56:59.402Z,84
2023-05-21T06:57:31.409Z,84
2023-05-21T06:58:03.233Z,85
2023-05-21T06:58:35.367Z,84
2023-05-21T06:59:07.230Z,84
2023-05-21T06:59:39.141Z,84
2023-05-21T07:00:11.902Z,84
2023-05-21T07:00:43.429Z,84
2023-05-21T07:01:15.043Z,84
2023-05-21T07:01:47.274Z,83
2023-05-21T07:02:19.049Z,83
2023-05-21T07:02:51.311Z,83
2023-05-21T07:03:22.946Z,84
2023-05-21T07:03:54.860Z,83
2023-05-21T07:04:27.097Z,83
2023-05-21T07:04:59.048Z,84
2023-05-21T07:05:31.111Z,83
2023-05-21T07:06:02.906Z,83
2023-05-21T07:06:35.306Z,83
2023-05-21T07:07:07.112Z,83
2023-05-21T07:07:38.798Z,83
2023-05-21T07:08:12.178Z,83
2023-05-21T07:08:42.754Z,82
2023-05-21T07:09:14.692Z,82
2023-05-21T07:09:46.787Z,83
2023-05-21T07:10:18.721Z,83
2023-05-21T07:10:50.976Z,83
2023-05-21T07:11:22.629Z,82
2023-05-21T07:11:54.743Z,83
2023-05-21T07:12:26.782Z,83
2023-05-21T07:12:58.656Z,83
2023-05-21T07:13:30.855Z,83
2023-05-21T07:14:02.641Z,83
2023-05-21T07:14:35.107Z,83
2023-05-21T07:15:07.475Z,83
2023-05-21T07:15:38.836Z,83
2023-05-21T07:16:10.555Z,83
2023-05-21T07:16:42.653Z,83
2023-05-21T07:17:14.673Z,83
2023-05-21T07:17:46.383Z,83
2023-05-21T07:18:18.369Z,82
2023-05-21T07:18:50.635Z,82
2023-05-21T07:19:22.642Z,82
2023-05-21T07:19:54.354Z,82
2023-05-21T07:20:26.289Z,83
2023-05-21T07:20:58.492Z,83
2023-05-21T07:21:30.583Z,83
2023-05-21T07:22:02.346Z,83
2023-05-21T07:22:34.309Z,83
2023-05-21T07:23:06.353Z,82
2023-05-21T07:23:38.316Z,82
2023-05-21T07:24:10.289Z,82
2023-05-21T07:24:42.244Z,82
2023-05-21T07:25:14.236Z,83
2023-05-21T07:25:46.161Z,83
2023-05-21T07:26:17.985Z,82
2023-05-21T07:26:50.172Z,82
2023-05-21T07:27:25.864Z,83
2023-05-21T07:27:53.994Z,83
2023-05-21T07:28:26.012Z,82
2023-05-21T07:28:57.935Z,82
2023-05-21T07:29:29.992Z,82
2023-05-21T07:30:02.280Z,83
2023-05-21T07:30:33.933Z,82
2023-05-21T07:31:05.870Z,82
2023-05-21T07:31:38.112Z,82
2023-05-21T07:32:09.884Z,82
2023-05-21T07:32:41.841Z,82
2023-05-21T07:33:13.926Z,82
2023-05-21T07:33:45.807Z,82
2023-05-21T07:34:17.830Z,82
2023-05-21T07:34:50.066Z,82
2023-05-21T07:35:21.770Z,82
2023-05-21T07:35:53.554Z,82